• Join FlightAware (Why Join?)
  • Login
  • US Flag 
02:44PM EDT


 

Airport Tracker/Info


-or-


 

Live Flight TrackerFlight Track Log ✈ N560CG ✈ 04-Jun-2014 ✈ KCRQ - KSTP

Flight Track Log - Related Links

Times and Time Zones

All times are in EDT time to prevent confusion due to time zone crossing. See the N560CG flight status page for this flight to view local times or setup timezone preferences in your user account.

Time Position Orientation Groundspeed Altitude Reporting Facility
EDT Latitude Longitude Course Direction KTS MPH feet Rate Location/Type
02:52PM 33.1167 -117.3833 270° West 253 291 3,600  Level Southern California TRACON
02:53PM 33.1658 -117.4114 334° Northwest 254 292 5,800 1,260 Climbing Los Angeles Center
02:54PM 33.2153 -117.3611 40° Northeast 251 289 6,100 60 Climbing Los Angeles Center
02:55PM 33.2439 -117.2658 70° East 254 292 6,000 840 Descending Los Angeles Center
02:56PM 33.2653 -117.1808 73° East 267 307 7,900 1,980 Climbing Los Angeles Center
02:57PM 33.2989 -117.0917 66° East 283 326 10,100 1,980 Climbing Los Angeles Center
02:58PM 33.3328 -116.9992 66° East 295 339 12,100 1,920 Climbing Los Angeles Center
02:59PM 33.3661 -116.9025 68° East 311 358 14,100 1,980 Climbing Los Angeles Center
03:00PM 33.4081 -116.7850 67° East 316 364 16,300 2,100 Climbing Los Angeles Center
03:01PM 33.4444 -116.6847 66° East 320 368 18,500 1,980 Climbing Los Angeles Center
03:02PM 33.4806 -116.5806 67° East 331 381 20,400 1,860 Climbing Los Angeles Center
03:03PM 33.5186 -116.4719 67° East 343 395 22,400 1,680 Climbing Los Angeles Center
03:04PM 33.5578 -116.3619 67° East 352 405 23,900 1,500 Climbing Los Angeles Center
03:05PM 33.6203 -116.2617 53° Northeast 371 427 25,500 1,560 Climbing Los Angeles Center
03:06PM 33.7011 -116.1414 51° Northeast 379 436 27,200 1,260 Climbing Los Angeles Center
03:07PM 33.7697 -116.0369 52° Northeast 387 445 28,200 960 Climbing Los Angeles Center
03:08PM 33.8411 -115.9242 53° Northeast 407 468 29,200 960 Climbing Los Angeles Center
03:09PM 33.9161 -115.8111 51° Northeast 420 483 30,200 960 Climbing Los Angeles Center
03:11PM 33.9900 -115.6939 53° Northeast 433 498 31,200 960 Climbing Los Angeles Center
03:12PM 34.0653 -115.5786 52° Northeast 437 503 32,200 1,020 Climbing Los Angeles Center
03:13PM 34.1550 -115.4381 52° Northeast 437 503 33,400 1,020 Climbing Los Angeles Center
03:14PM 34.2311 -115.3217 52° Northeast 437 503 34,400 960 Climbing Los Angeles Center
03:15PM 34.3056 -115.2050 52° Northeast 437 503 35,400 960 Climbing Los Angeles Center
03:16PM 34.3789 -115.0869 53° Northeast 438 504 36,400 960 Climbing Los Angeles Center
03:17PM 34.4533 -114.9706 52° Northeast 438 504 37,400 960 Climbing Los Angeles Center
03:18PM 34.5269 -114.8544 52° Northeast 437 503 38,400 960 Climbing Los Angeles Center
03:19PM 34.6139 -114.7153 53° Northeast 436 502 39,500 840 Climbing Los Angeles Center
03:20PM 34.6864 -114.6019 52° Northeast 435 501 40,200 540 Climbing Los Angeles Center
03:21PM 34.7597 -114.4819 53° Northeast 437 503 40,700 360 Climbing Los Angeles Center
03:22PM 34.8189 -114.3508 61° Northeast 439 505 41,000 120 Climbing Los Angeles Center
03:23PM 34.8794 -114.2164 61° Northeast 449 517 41,000  Level Los Angeles Center
03:24PM 34.9528 -114.0494 62° Northeast 462 532 41,000  Level Los Angeles Center
03:25PM 35.0044 -113.9292 62° Northeast 469 540 41,000  Level Los Angeles Center
03:26PM 35.0800 -113.7572 62° Northeast 475 547 41,000  Level Los Angeles Center
03:27PM 35.1431 -113.6128 62° Northeast 479 551 41,000  Level Los Angeles Center
03:28PM 35.2056 -113.4669 62° Northeast 482 555 41,000  Level Los Angeles Center
03:29PM 35.2689 -113.3214 62° Northeast 482 555 41,000  Level Los Angeles Center
03:30PM 35.3411 -113.1533 62° Northeast 483 556 41,000  Level Los Angeles Center
03:31PM 35.4044 -113.0058 62° Northeast 486 559 41,000  Level Los Angeles Center
03:32PM 35.4642 -112.8600 63° Northeast 487 560 41,000  Level Los Angeles Center
03:33PM 35.5267 -112.7128 62° Northeast 488 562 41,000  Level Los Angeles Center
03:34PM 35.5981 -112.5414 63° Northeast 489 563 41,000  Level Los Angeles Center
03:35PM 35.6603 -112.3922 63° Northeast 489 563 41,000  Level Los Angeles Center
03:36PM 35.7219 -112.2447 63° Northeast 487 560 41,000  Level Los Angeles Center
03:37PM 35.7839 -112.0969 63° Northeast 489 563 41,000  Level Los Angeles Center
03:38PM 35.8458 -111.9475 63° Northeast 489 563 41,000  Level Los Angeles Center
03:40PM 35.9056 -111.7964 64° Northeast 489 563 41,000  Level Los Angeles Center
03:41PM 35.9811 -111.6164 63° Northeast 486 559 41,000  Level Los Angeles Center
03:42PM 36.0419 -111.4650 64° Northeast 491 565 41,000  Level Los Angeles Center
03:43PM 36.1017 -111.3153 64° Northeast 489 563 41,000  Level Los Angeles Center
03:44PM 36.1764 -111.1789 56° Northeast 486 559 41,000  Level Los Angeles Center
03:45PM 36.2589 -111.0492 52° Northeast 484 557 41,000  Level Los Angeles Center
03:46PM 36.3567 -110.8900 53° Northeast 484 557 41,000  Level Los Angeles Center
03:47PM 36.4553 -110.7328 52° Northeast 486 559 41,000  Level Denver Center
03:48PM 36.5522 -110.5747 53° Northeast 486 559 41,000  Level Denver Center
03:49PM 36.6328 -110.4428 53° Northeast 485 558 41,000  Level Denver Center
03:50PM 36.7136 -110.3086 53° Northeast 485 558 41,000  Level Denver Center
03:51PM 36.7944 -110.1778 52° Northeast 483 556 41,000  Level Denver Center
03:52PM 36.8753 -110.0442 53° Northeast 483 556 41,000  Level Denver Center
03:53PM 36.9556 -109.9106 53° Northeast 483 556 41,000  Level Denver Center
03:54PM 37.0414 -109.7703 53° Northeast 482 555 41,000  Level Denver Center
03:55PM 37.1203 -109.6308 55° Northeast 483 556 41,000  Level Denver Center
03:56PM 37.2106 -109.4825 53° Northeast 479 551 41,000  Level Denver Center
03:57PM 37.2983 -109.3375 53° Northeast 478 550 41,000  Level Denver Center
03:58PM 37.3739 -109.2086 54° Northeast 480 552 41,000  Level Denver Center
03:59PM 37.4614 -109.0575 54° Northeast 478 550 41,000  Level Denver Center
04:01PM 37.5372 -108.9306 53° Northeast 477 549 41,000  Level Denver Center
04:02PM 37.6242 -108.7792 54° Northeast 478 550 41,000  Level Denver Center
04:03PM 37.6997 -108.6494 54° Northeast 478 550 41,000  Level Denver Center
04:04PM 37.7881 -108.4964 54° Northeast 479 551 41,000  Level Denver Center
04:05PM 37.8619 -108.3689 54° Northeast 479 551 41,000  Level Denver Center
04:06PM 37.9503 -108.2186 53° Northeast 476 548 41,000  Level Denver Center
04:07PM 38.0242 -108.0861 55° Northeast 476 548 41,000  Level Denver Center
04:08PM 38.1119 -107.9294 55° Northeast 482 555 41,000  Level Denver Center
04:09PM 38.1867 -107.7989 54° Northeast 483 556 41,000  Level Denver Center
04:10PM 38.2614 -107.6669 54° Northeast 482 555 41,000  Level Denver Center
04:11PM 38.3464 -107.5139 55° Northeast 479 551 41,000  Level Denver Center
04:12PM 38.4203 -107.3814 55° Northeast 478 550 41,000  Level Denver Center
04:13PM 38.5061 -107.2286 54° Northeast 478 550 41,000  Level Denver Center
04:14PM 38.5781 -107.0994 55° Northeast 477 549 41,000  Level Denver Center
04:15PM 38.6544 -106.9583 55° Northeast 479 551 41,000  Level Denver Center
04:16PM 38.7306 -106.8217 54° Northeast 478 550 41,000  Level Denver Center
04:17PM 38.8211 -106.6561 55° Northeast 476 548 41,000  Level Denver Center
04:18PM 38.8944 -106.5208 55° Northeast 476 548 41,000  Level Denver Center
04:19PM 38.9786 -106.3633 55° Northeast 477 549 41,000  Level Denver Center
04:20PM 39.0511 -106.2300 55° Northeast 477 549 41,000  Level Denver Center
04:21PM 39.1317 -106.0803 55° Northeast 477 549 41,000  Level Denver Center
04:22PM 39.2067 -105.9403 55° Northeast 477 549 41,000  Level Denver Center
04:23PM 39.2817 -105.7994 55° Northeast 476 548 41,000  Level Denver Center
04:24PM 39.3558 -105.6592 56° Northeast 475 547 41,000  Level Denver Center
04:25PM 39.4439 -105.5350 47° Northeast 472 543 41,000  Level Denver Center
04:26PM 39.5556 -105.3961 44° Northeast 466 536 41,000  Level Denver Center
04:27PM 39.6514 -105.2847 42° Northeast 461 531 41,000  Level Denver Center
04:28PM 39.7458 -105.1697 43° Northeast 462 532 41,000  Level Denver Center
04:29PM 39.8369 -105.0536 44° Northeast 457 526 41,000  Level Denver Center
04:30PM 39.9150 -104.9169 53° Northeast 463 533 41,000  Level Denver Center
04:32PM 39.9892 -104.7758 56° Northeast 469 540 41,000  Level Denver Center
04:33PM 40.0611 -104.6350 56° Northeast 468 539 41,000  Level Denver Center
04:34PM 40.1342 -104.4942 56° Northeast 467 537 41,000  Level Denver Center
04:35PM 40.2208 -104.3242 56° Northeast 467 537 41,000  Level Denver Center
04:36PM 40.2919 -104.1839 56° Northeast 467 537 41,000  Level Denver Center
04:37PM 40.3642 -104.0414 56° Northeast 466 536 41,000  Level Denver Center
04:38PM 40.4364 -103.9028 56° Northeast 465 535 41,000  Level Denver Center
04:39PM 40.5072 -103.7606 57° Northeast 465 535 41,000  Level Denver Center
04:40PM 40.5786 -103.6200 56° Northeast 464 534 41,000  Level Denver Center
04:41PM 40.6492 -103.4783 57° Northeast 461 531 41,000  Level Denver Center
04:42PM 40.7336 -103.3078 57° Northeast 462 532 41,000  Level Denver Center
04:43PM 40.8050 -103.1669 56° Northeast 462 532 41,000  Level Denver Center
04:44PM 40.8736 -103.0244 57° Northeast 462 532 41,000  Level Denver Center
04:45PM 40.9472 -102.8758 57° Northeast 462 532 41,000  Level Denver Center
04:46PM 41.0136 -102.7394 57° Northeast 462 532 41,000  Level Denver Center
04:47PM 41.0931 -102.5783 57° Northeast 463 533 41,000  Level Denver Center
04:48PM 41.1597 -102.4397 57° Northeast 463 533 41,000  Level Denver Center
04:49PM 41.2369 -102.2778 58° Northeast 463 533 41,000  Level Denver Center
04:50PM 41.3056 -102.1367 57° Northeast 467 537 41,000  Level Denver Center
04:51PM 41.3836 -101.9739 57° Northeast 467 537 41,000  Level Denver Center
04:52PM 41.4506 -101.8328 58° Northeast 467 537 41,000  Level Denver Center
04:53PM 41.5283 -101.6678 58° Northeast 468 539 41,000  Level Denver Center
04:54PM 41.5942 -101.5269 58° Northeast 467 537 41,000  Level Denver Center
04:55PM 41.6614 -101.3842 58° Northeast 469 540 41,000  Level Denver Center
04:56PM 41.7386 -101.2178 58° Northeast 470 541 41,000  Level Denver Center
04:57PM 41.8044 -101.0750 58° Northeast 470 541 41,000  Level Denver Center
04:58PM 41.8808 -100.9075 58° Northeast 470 541 41,000  Level Denver Center
04:59PM 41.9458 -100.7658 58° Northeast 469 540 41,000  Level Denver Center
05:00PM 42.0222 -100.5986 58° Northeast 468 539 41,000  Level Denver Center
05:01PM 42.0872 -100.4542 59° Northeast 468 539 41,000  Level Denver Center
05:03PM 42.1625 -100.2872 59° Northeast 468 539 41,000  Level Denver Center
05:04PM 42.2264 -100.1419 59° Northeast 468 539 41,000  Level Denver Center
05:05PM 42.3017 -99.9772 58° Northeast 467 537 41,000  Level Denver Center
05:06PM 42.3656 -99.8328 59° Northeast 466 536 41,000  Level Denver Center
05:07PM 42.4386 -99.6664 59° Northeast 469 540 41,000  Level Denver Center
05:08PM 42.5058 -99.5158 59° Northeast 469 540 41,000  Level Denver Center
05:09PM 42.5725 -99.3628 59° Northeast 469 540 41,000  Level Denver Center
05:10PM 42.6386 -99.2094 60° Northeast 469 540 41,000  Level Denver Center
05:11PM 42.7047 -99.0556 60° Northeast 469 540 41,000  Level Denver Center
05:12PM 42.7714 -98.9031 59° Northeast 469 540 41,000  Level Denver Center
05:13PM 42.8636 -98.6869 60° Northeast 469 540 41,000  Level Minneapolis Center
05:14PM 42.9419 -98.5039 60° Northeast 469 540 41,000  Level Minneapolis Center
05:15PM 43.0064 -98.3500 61° Northeast 468 539 41,000  Level Minneapolis Center
05:16PM 43.0146 -98.3263 61° Northeast  Level FlightAware Approximate
05:16PM 43.0714 -98.1944 60° Northeast 467 537 41,000  Level Minneapolis Center
05:17PM 43.1350 -98.0414 60° Northeast 467 537 41,000  Level Minneapolis Center
05:18PM 43.2014 -97.8825 60° Northeast 465 535 41,000  Level Minneapolis Center
05:19PM 43.2650 -97.7306 60° Northeast 464 534 41,000  Level Minneapolis Center
05:20PM 43.3283 -97.5753 61° Northeast 463 533 41,000  Level Minneapolis Center
05:22PM 43.3919 -97.4186 61° Northeast 464 534 41,000  Level Minneapolis Center
05:23PM 43.4675 -97.2336 61° Northeast 462 532 41,000  Level Minneapolis Center
05:24PM 43.5403 -97.0911 55° Northeast 458 527 41,000  Level Minneapolis Center
05:25PM 43.6261 -96.9583 48° Northeast 461 531 41,000  Level Minneapolis Center
05:26PM 43.7108 -96.8264 48° Northeast 460 529 41,000  Level Minneapolis Center
05:27PM 43.8028 -96.6833 48° Northeast 461 531 41,000  Level Minneapolis Center
05:28PM 43.8883 -96.5494 48° Northeast 462 532 41,000 -540 Level Minneapolis Center
05:29PM 43.9731 -96.4158 49° Northeast 462 532 39,900 -1,500 Descending Minneapolis Center
05:30PM 44.0578 -96.2825 48° Northeast 462 532 37,900 -2,100 Descending Minneapolis Center
05:31PM 44.1564 -96.1269 49° Northeast 454 522 35,600 -2,220 Descending Minneapolis Center
05:32PM 44.2372 -95.9978 49° Northeast 447 514 33,400 -2,100 Descending Minneapolis Center
05:33PM 44.3192 -95.8664 49° Northeast 447 514 31,300 -2,100 Descending Minneapolis Center
05:34PM 44.4011 -95.7347 49° Northeast 447 514 29,100 -2,220 Descending Minneapolis Center
05:35PM 44.4828 -95.6039 49° Northeast 448 516 26,800 -2,280 Descending Minneapolis Center
05:36PM 44.5633 -95.4736 49° Northeast 447 514 24,500 -2,400 Descending Minneapolis Center
05:37PM 44.6217 -95.2844 67° East 446 513 21,900 -2,280 Descending Minneapolis Center
05:38PM 44.6550 -95.1236 74° East 441 507 19,800 -2,040 Descending Minneapolis Center
05:39PM 44.6869 -94.9669 74° East 430 495 17,800 -1,920 Descending Minneapolis Center
05:40PM 44.7175 -94.8183 74° East 415 478 15,900 -1,800 Descending Minneapolis Center
05:41PM 44.7444 -94.6831 74° East 385 443 14,200 -1,620 Descending Minneapolis Center
05:42PM 44.7711 -94.5544 74° East 352 405 12,600 -1,620 Descending Minneapolis Center
05:43PM 44.8031 -94.4028 73° East 338 389 10,900 -1,560 Descending Minneapolis Center
05:44PM 44.8383 -94.2919 66° East 310 357 9,400 -1,320 Descending Minneapolis Center
05:45PM 44.8606 -94.1869 73° East 282 325 8,200 -1,260 Descending Minneapolis Center
05:46PM 44.8883 -94.0900 68° East 270 311 6,900 -1,260 Descending Minneapolis Center
05:47PM 44.9192 -93.9961 65° Northeast 265 305 5,700 -960 Descending Minneapolis Center
05:48PM 44.8944 -93.9014 110° East 258 297 5,000 -360 Descending Minneapolis Center
05:49PM 44.8561 -93.8019 119° Southeast 244 281 5,000  Level Minneapolis Center
05:50PM 44.8228 -93.7150 118° Southeast 250 288 5,100  Climbing Minneapolis Center
05:52PM 44.7897 -93.6278 118° Southeast 251 289 5,000  Descending Minneapolis Center
05:53PM 44.7847 -93.5333 94° East 248 285 5,100 -180 Climbing Minneapolis Center
05:54PM 44.7975 -93.4403 79° East 248 285 4,700 -540 Descending Minneapolis Center
05:55PM 44.8464 -93.3628 48° Northeast 260 299 4,100 -360 Descending Minneapolis Center
05:56PM 44.8944 -93.2869 48° Northeast 259 298 4,000 -180 Descending Minneapolis Center
05:57PM 44.9400 -93.2167 48° Northeast 243 280 3,800 -660 Descending Minneapolis Center
05:58PM 44.9761 -93.1350 58° Northeast 197 227 2,700 -1,140 Descending Minneapolis Center
05:59PM 44.9650 -93.0903 109° East 142 163 1,500 -780 Descending Minneapolis Center
06:00PM 44.9369 -93.0650 147° Southeast 135 155 1,200 -300 Descending Minneapolis Center
06:02PM 44.9333 -93.0500 133° Southeast  Level FlightAware Approximate